Time;durP1;ratioP1;P1;durP2;ratioP2;P2;SDS_P1;SDS_P2;PMS_P1;PMS_P2;Temp;Humidity;BMP_temperature;BMP_pressure;BME280_temperature;BME280_humidity;BME280_pressure;Samples;Min_cycle;Max_cycle;Signal;HPM_P1;HPM_P2
2021/01/27 00:00:10;;;;;;;21.83;16.13;;;3.60;92.70;;;;;;5073026;28;20097;-47
2021/01/27 00:02:36;;;;;;;23.10;16.17;;;3.60;92.80;;;;;;5065211;28;20040;-49
2021/01/27 00:05:03;;;;;;;20.40;16.15;;;3.60;92.80;;;;;;5076775;28;20041;-49
2021/01/27 00:07:29;;;;;;;19.10;15.43;;;3.60;92.90;;;;;;5052965;28;20068;-47
2021/01/27 00:09:55;;;;;;;22.80;16.58;;;3.50;92.90;;;;;;5068233;28;20512;-48
2021/01/27 00:12:20;;;;;;;23.08;17.00;;;3.60;93.10;;;;;;5070744;28;20528;-48
2021/01/27 00:14:46;;;;;;;21.98;16.83;;;3.60;93.20;;;;;;5073863;28;20037;-50
2021/01/27 00:17:12;;;;;;;24.23;18.08;;;3.60;93.00;;;;;;5072246;28;20659;-47
2021/01/27 00:19:38;;;;;;;19.73;14.18;;;3.50;93.10;;;;;;5037718;28;20044;-50
2021/01/27 00:22:03;;;;;;;20.73;15.65;;;3.60;93.10;;;;;;5054564;28;20048;-50
2021/01/27 00:24:29;;;;;;;24.17;17.02;;;3.60;93.20;;;;;;5054368;28;20097;-48
2021/01/27 00:26:55;;;;;;;24.30;17.45;;;3.60;93.20;;;;;;5037534;28;20110;-49
2021/01/27 00:29:20;;;;;;;24.58;16.98;;;3.60;93.20;;;;;;5020873;28;20029;-49
2021/01/27 00:31:46;;;;;;;21.45;16.27;;;3.60;93.00;;;;;;5054120;28;20144;-47
2021/01/27 00:34:12;;;;;;;21.10;16.98;;;3.60;93.10;;;;;;5054287;28;20040;-49
2021/01/27 00:36:37;;;;;;;24.63;18.13;;;3.70;93.10;;;;;;5054413;28;20357;-47
2021/01/27 00:39:03;;;;;;;21.98;16.33;;;3.70;93.00;;;;;;5055497;28;20064;-49
2021/01/27 00:41:29;;;;;;;21.13;16.35;;;3.70;93.00;;;;;;5056282;28;20402;-50
2021/01/27 00:43:55;;;;;;;22.10;16.27;;;3.70;92.80;;;;;;5056299;28;20021;-49
2021/01/27 00:46:21;;;;;;;23.25;16.90;;;3.80;92.80;;;;;;5056233;28;20032;-49
2021/01/27 00:48:48;;;;;;;24.60;16.45;;;3.80;92.80;;;;;;5056515;28;20056;-50
2021/01/27 00:51:15;;;;;;;21.85;17.60;;;3.80;92.90;;;;;;5056036;28;20043;-50
2021/01/27 00:53:42;;;;;;;21.15;15.38;;;3.80;92.90;;;;;;5056259;28;20460;-49
2021/01/27 00:56:08;;;;;;;21.40;16.42;;;3.80;92.80;;;;;;5056067;28;20397;-49
2021/01/27 00:58:34;;;;;;;23.67;16.23;;;3.70;92.90;;;;;;5056252;28;20017;-47
2021/01/27 01:00:59;;;;;;;23.05;16.80;;;3.70;92.90;;;;;;5055796;28;20395;-49
2021/01/27 01:03:25;;;;;;;22.90;17.15;;;3.70;93.00;;;;;;5056024;28;20025;-47
2021/01/27 01:05:51;;;;;;;24.35;17.40;;;3.80;92.90;;;;;;5053512;28;20884;-47
2021/01/27 01:08:18;;;;;;;26.05;19.33;;;3.80;92.90;;;;;;5053468;28;20511;-48
2021/01/27 01:10:47;;;;;;;28.65;20.50;;;3.70;93.10;;;;;;5036810;28;20052;-49
2021/01/27 01:13:17;;;;;;;32.35;21.30;;;3.80;93.00;;;;;;5053572;28;20029;-49
2021/01/27 01:15:43;;;;;;;31.60;22.05;;;3.80;92.90;;;;;;5053412;28;20043;-48
2021/01/27 01:18:11;;;;;;;36.85;23.08;;;3.80;92.90;;;;;;5053467;28;20033;-50
2021/01/27 01:20:37;;;;;;;30.88;19.95;;;3.90;92.90;;;;;;5053501;28;20124;-47
2021/01/27 01:23:03;;;;;;;21.17;15.60;;;3.80;92.90;;;;;;5019874;28;20488;-49
2021/01/27 01:25:31;;;;;;;22.23;16.05;;;3.80;92.80;;;;;;5052995;28;20041;-50
2021/01/27 01:27:58;;;;;;;24.50;16.73;;;3.80;92.90;;;;;;5033277;28;20044;-49
2021/01/27 01:30:53;;;;;;;20.70;15.20;;;3.80;92.90;;;;;;5033169;28;20474;-49
2021/01/27 01:33:22;;;;;;;19.02;14.93;;;3.80;92.80;;;;;;4993898;28;20100;-48
2021/01/27 01:35:48;;;;;;;20.20;15.43;;;3.80;92.80;;;;;;4993957;28;20525;-50
2021/01/27 01:38:15;;;;;;;21.20;16.45;;;3.80;93.00;;;;;;5009744;28;20494;-48
2021/01/27 01:40:49;;;;;;;21.02;15.55;;;3.80;93.00;;;;;;4993547;28;20030;-49
2021/01/27 01:43:21;;;;;;;22.33;16.75;;;3.80;93.00;;;;;;4993795;28;20050;-50
2021/01/27 01:45:50;;;;;;;24.73;19.23;;;3.90;92.80;;;;;;4993527;28;20041;-48
2021/01/27 01:48:31;;;;;;;23.67;19.35;;;3.90;93.00;;;;;;4993622;28;20125;-50
2021/01/27 01:51:02;;;;;;;26.45;20.90;;;3.80;92.80;;;;;;4993626;28;20096;-50
2021/01/27 01:53:28;;;;;;;26.17;19.08;;;3.80;93.10;;;;;;5009577;28;20042;-49
2021/01/27 01:55:57;;;;;;;23.92;17.40;;;3.80;93.10;;;;;;4993488;28;20113;-50
2021/01/27 01:58:23;;;;;;;21.00;17.17;;;3.80;93.40;;;;;;4996947;28;20136;-49
2021/01/27 02:00:56;;;;;;;21.52;15.98;;;3.80;93.50;;;;;;5012924;28;20069;-48
2021/01/27 02:03:23;;;;;;;22.88;16.15;;;3.80;93.50;;;;;;5012929;28;20042;-50
2021/01/27 02:05:49;;;;;;;22.67;16.80;;;3.80;93.50;;;;;;4996631;28;20489;-50
2021/01/27 02:08:16;;;;;;;20.45;15.35;;;3.80;93.60;;;;;;5012613;28;20026;-48
2021/01/27 02:10:42;;;;;;;20.27;15.02;;;3.70;93.60;;;;;;5051397;28;20487;-50
2021/01/27 02:13:07;;;;;;;21.70;16.25;;;3.60;93.80;;;;;;5054955;28;20029;-48
2021/01/27 02:16:06;;;;;;;20.48;16.30;;;3.50;94.40;;;;;;5054465;28;20029;-48
2021/01/27 02:18:54;;;;;;;20.63;15.40;;;3.40;94.70;;;;;;5032338;28;20400;-50
2021/01/27 02:21:39;;;;;;;22.60;16.13;;;3.50;94.40;;;;;;5032263;28;20144;-50
2021/01/27 02:24:25;;;;;;;21.20;15.93;;;3.40;94.80;;;;;;5032514;28;20044;-59
2021/01/27 02:27:24;;;;;;;22.65;16.50;;;3.30;95.50;;;;;;5048803;28;20392;-48
2021/01/27 02:29:58;;;;;;;21.55;15.90;;;3.20;96.10;;;;;;5032167;28;20381;-49
2021/01/27 02:32:33;;;;;;;23.35;16.83;;;3.30;96.00;;;;;;5032184;28;20030;-50
2021/01/27 02:35:11;;;;;;;26.38;17.00;;;3.30;96.00;;;;;;5032241;28;20488;-48
2021/01/27 02:37:49;;;;;;;21.23;15.63;;;3.30;95.90;;;;;;5031284;28;20045;-50
2021/01/27 02:40:37;;;;;;;22.23;16.23;;;3.30;96.10;;;;;;5032227;28;20047;-50
2021/01/27 02:43:09;;;;;;;22.13;16.50;;;3.30;96.10;;;;;;5015533;28;20046;-48
2021/01/27 02:45:39;;;;;;;23.92;17.27;;;3.40;95.90;;;;;;5031758;28;20039;-51
2021/01/27 02:48:25;;;;;;;19.50;15.18;;;3.40;95.70;;;;;;5032117;28;20088;-48
2021/01/27 02:50:57;;;;;;;21.65;15.48;;;3.40;95.50;;;;;;5031926;28;20053;-49
2021/01/27 02:53:37;;;;;;;20.05;15.88;;;3.50;95.50;;;;;;5031874;28;20080;-49
2021/01/27 02:56:25;;;;;;;23.42;16.70;;;3.50;95.10;;;;;;5047788;28;20044;-49
2021/01/27 02:59:05;;;;;;;20.77;16.42;;;3.60;94.90;;;;;;5053788;28;20036;-48
2021/01/27 03:01:42;;;;;;;22.48;16.17;;;3.60;94.90;;;;;;5053960;28;20017;-48
2021/01/27 03:04:25;;;;;;;19.98;15.73;;;3.50;94.80;;;;;;5054297;28;20031;-50
2021/01/27 03:06:53;;;;;;;23.45;16.20;;;3.50;95.10;;;;;;5053715;28;20040;-50
2021/01/27 03:09:40;;;;;;;21.05;16.27;;;3.40;95.40;;;;;;5053703;28;20094;-49
2021/01/27 03:12:08;;;;;;;22.17;15.20;;;3.30;95.50;;;;;;5053701;28;20033;-48
2021/01/27 03:14:33;;;;;;;22.92;16.15;;;3.30;95.20;;;;;;5053554;28;20033;-49
2021/01/27 03:17:03;;;;;;;22.38;16.23;;;3.30;95.20;;;;;;5051339;28;20412;-49
2021/01/27 03:19:36;;;;;;;22.48;15.65;;;3.30;95.40;;;;;;5031917;28;20478;-49
2021/01/27 03:22:15;;;;;;;21.42;15.55;;;3.40;94.90;;;;;;5051196;28;20567;-49
2021/01/27 03:24:56;;;;;;;22.70;15.80;;;3.30;94.90;;;;;;5051544;28;20098;-50
2021/01/27 03:27:26;;;;;;;19.67;14.10;;;3.40;94.70;;;;;;5051286;28;20033;-50
2021/01/27 03:29:55;;;;;;;20.85;13.27;;;3.40;94.50;;;;;;5050947;28;20089;-49
2021/01/27 03:32:54;;;;;;;20.70;14.77;;;3.30;94.70;;;;;;5051249;28;20041;-47
2021/01/27 03:35:32;;;;;;;17.30;13.77;;;3.30;95.10;;;;;;5051120;28;20120;-49
2021/01/27 03:38:08;;;;;;;20.73;15.30;;;3.20;95.30;;;;;;5034902;28;20095;-47
2021/01/27 03:40:37;;;;;;;18.90;13.73;;;3.20;95.50;;;;;;5050875;28;20056;-49
2021/01/27 03:43:19;;;;;;;18.38;14.23;;;3.20;95.70;;;;;;5051080;28;20037;-49
2021/01/27 03:45:49;;;;;;;18.57;15.77;;;3.10;96.40;;;;;;5050953;28;20079;-47
2021/01/27 03:48:38;;;;;;;18.30;14.40;;;3.10;96.50;;;;;;5052285;28;20116;-50
2021/01/27 03:51:05;;;;;;;17.58;13.85;;;3.10;96.10;;;;;;5057229;28;20029;-49
2021/01/27 03:53:33;;;;;;;18.83;14.13;;;3.10;96.10;;;;;;5056351;28;20381;-48
2021/01/27 03:56:15;;;;;;;19.92;14.80;;;3.20;95.90;;;;;;5057415;28;20376;-48
2021/01/27 03:58:44;;;;;;;18.92;14.20;;;3.10;96.00;;;;;;5057035;28;20021;-50
2021/01/27 04:01:11;;;;;;;19.48;14.73;;;3.10;96.00;;;;;;5057327;28;20419;-48
2021/01/27 04:03:38;;;;;;;17.88;13.40;;;3.10;96.30;;;;;;5057070;28;20333;-49
2021/01/27 04:06:06;;;;;;;21.33;13.35;;;3.00;96.10;;;;;;5057063;28;20431;-47
2021/01/27 04:08:32;;;;;;;16.60;13.15;;;3.00;96.20;;;;;;5056928;28;20054;-49
2021/01/27 04:10:59;;;;;;;16.50;12.73;;;3.10;95.70;;;;;;5057091;28;20021;-47
2021/01/27 04:13:25;;;;;;;10.82;7.65;;;3.00;95.70;;;;;;5056812;28;20037;-48
2021/01/27 04:15:51;;;;;;;16.30;12.50;;;3.00;95.30;;;;;;5057070;28;20048;-48
2021/01/27 04:18:17;;;;;;;17.27;14.25;;;3.00;95.60;;;;;;5056986;28;20036;-47
2021/01/27 04:20:43;;;;;;;15.88;12.63;;;3.00;95.70;;;;;;5056658;28;20044;-49
2021/01/27 04:23:09;;;;;;;16.15;13.15;;;2.90;96.00;;;;;;5056780;28;20029;-47
2021/01/27 04:25:35;;;;;;;16.88;12.52;;;3.00;95.90;;;;;;5056607;28;20025;-50
2021/01/27 04:28:01;;;;;;;18.42;13.73;;;3.00;95.80;;;;;;5056486;28;20047;-48
2021/01/27 04:30:32;;;;;;;15.63;10.80;;;2.90;96.00;;;;;;5056713;28;20551;-49
2021/01/27 04:33:02;;;;;;;15.82;12.27;;;2.90;95.70;;;;;;5071256;28;20051;-47
2021/01/27 04:35:28;;;;;;;14.63;9.77;;;3.00;95.50;;;;;;5056606;28;20025;-48
2021/01/27 04:37:54;;;;;;;16.88;13.52;;;3.00;95.60;;;;;;5054284;28;20093;-47
2021/01/27 04:40:31;;;;;;;16.40;11.68;;;3.00;95.50;;;;;;5056474;28;20033;-48
2021/01/27 04:42:57;;;;;;;14.40;9.55;;;3.10;95.40;;;;;;5053585;28;20051;-46
2021/01/27 04:45:23;;;;;;;15.50;11.60;;;2.70;96.00;;;;;;5053931;28;20465;-47
2021/01/27 04:48:00;;;;;;;15.93;12.35;;;2.80;95.90;;;;;;5053955;28;20037;-46
2021/01/27 04:50:45;;;;;;;13.00;9.43;;;2.90;96.30;;;;;;5053946;28;20021;-47
2021/01/27 04:53:37;;;;;;;8.95;6.30;;;2.90;95.70;;;;;;5054033;28;20045;-49
2021/01/27 04:56:06;;;;;;;14.65;11.18;;;2.80;95.90;;;;;;5054124;28;20029;-49
2021/01/27 04:59:05;;;;;;;15.25;12.88;;;2.80;96.00;;;;;;5053387;28;20120;-47
2021/01/27 05:01:46;;;;;;;14.00;11.90;;;2.80;96.00;;;;;;5053842;28;20040;-49
2021/01/27 05:04:15;;;;;;;15.13;11.77;;;2.80;96.30;;;;;;5053623;28;20041;-47
2021/01/27 05:06:43;;;;;;;14.98;11.23;;;2.80;96.20;;;;;;5053689;28;20052;-47
2021/01/27 05:09:23;;;;;;;15.55;12.15;;;2.80;96.00;;;;;;5053262;28;20504;-47
2021/01/27 05:11:52;;;;;;;13.55;9.88;;;2.80;96.30;;;;;;5053189;28;20040;-47
2021/01/27 05:14:19;;;;;;;14.55;11.25;;;2.70;96.30;;;;;;5055058;28;20029;-47
2021/01/27 05:16:49;;;;;;;14.70;11.15;;;2.80;96.30;;;;;;5055816;28;20025;-48
2021/01/27 05:19:15;;;;;;;16.17;11.93;;;2.80;96.40;;;;;;5055587;28;20460;-46
2021/01/27 05:21:47;;;;;;;17.10;12.13;;;2.90;96.30;;;;;;5055443;28;20029;-47
2021/01/27 05:24:13;;;;;;;15.57;9.88;;;2.70;96.50;;;;;;5055453;28;20484;-50
2021/01/27 05:26:45;;;;;;;12.65;9.65;;;2.70;96.50;;;;;;5055268;28;20025;-49
2021/01/27 05:29:17;;;;;;;;;;;2.70;96.70;;;;;;5055875;28;20027;-47
2021/01/27 05:32:05;;;;;;;13.07;9.00;;;2.60;96.90;;;;;;5055312;28;20371;-49
2021/01/27 05:34:52;;;;;;;15.13;11.38;;;2.60;97.30;;;;;;5055128;28;20032;-49
2021/01/27 05:37:34;;;;;;;12.13;8.60;;;2.70;96.90;;;;;;5055272;28;20102;-49
2021/01/27 05:40:23;;;;;;;16.25;12.27;;;2.70;96.90;;;;;;5055607;28;20033;-49
2021/01/27 05:42:49;;;;;;;13.80;10.07;;;2.60;98.40;;;;;;5032613;28;20060;-48
2021/01/27 05:45:30;;;;;;;15.80;12.13;;;2.70;98.90;;;;;;5033232;28;20116;-48
2021/01/27 05:48:10;;;;;;;14.00;10.85;;;2.80;98.30;;;;;;5016062;28;20459;-48
2021/01/27 05:50:38;;;;;;;11.48;8.27;;;2.70;98.30;;;;;;5032983;28;20037;-49
2021/01/27 05:53:17;;;;;;;16.38;11.32;;;2.70;98.40;;;;;;5032956;28;20111;-48
2021/01/27 05:56:11;;;;;;;13.90;10.70;;;2.80;98.30;;;;;;5032894;28;20068;-48
2021/01/27 05:58:40;;;;;;;15.05;11.95;;;2.80;98.00;;;;;;5049343;28;20146;-47
2021/01/27 06:01:56;;;;;;;14.75;11.32;;;2.90;98.00;;;;;;5032815;28;20096;-48
2021/01/27 06:04:25;;;;;;;16.35;12.40;;;2.90;97.00;;;;;;4954270;28;20085;-49
2021/01/27 06:06:51;;;;;;;15.65;12.10;;;2.80;97.00;;;;;;4954413;29;20051;-47
2021/01/27 06:09:39;;;;;;;14.75;11.13;;;2.90;97.10;;;;;;4954591;29;20039;-49
2021/01/27 06:12:19;;;;;;;13.48;9.68;;;2.80;96.90;;;;;;4953223;28;20082;-48
2021/01/27 06:15:06;;;;;;;13.32;9.40;;;2.90;96.90;;;;;;4954557;28;20031;-49
2021/01/27 06:17:50;;;;;;;15.55;11.93;;;3.00;99.50;;;;;;4951721;29;20059;-49
2021/01/27 06:20:15;;;;;;;14.07;11.98;;;3.00;99.50;;;;;;4994028;28;20037;-49
2021/01/27 06:23:27;;;;;;;13.65;11.10;;;3.00;99.50;;;;;;5004760;28;20065;-48
2021/01/27 06:26:22;;;;;;;14.93;10.93;;;2.90;99.50;;;;;;4993296;28;20042;-48
2021/01/27 06:29:09;;;;;;;13.20;10.05;;;3.00;99.70;;;;;;5012363;28;20034;-48
2021/01/27 06:32:11;;;;;;;13.27;10.68;;;2.90;99.40;;;;;;5012606;28;20050;-48
2021/01/27 06:34:43;;;;;;;7.82;5.50;;;2.90;98.80;;;;;;5000732;28;20165;-47
2021/01/27 06:37:26;;;;;;;15.63;11.15;;;2.70;99.90;;;;;;4995176;28;20057;-47
2021/01/27 06:39:52;;;;;;;10.52;7.57;;;2.90;99.90;;;;;;5056493;28;20048;-47
2021/01/27 06:42:56;;;;;;;15.00;11.93;;;2.90;99.90;;;;;;5074101;28;20094;-50
2021/01/27 06:45:27;;;;;;;12.07;8.52;;;2.80;99.90;;;;;;5032015;28;20041;-47
2021/01/27 06:47:58;;;;;;;11.43;8.05;;;2.90;99.90;;;;;;5031812;28;20408;-49
2021/01/27 06:50:27;;;;;;;16.55;13.68;;;2.90;99.90;;;;;;5031957;28;20619;-47
2021/01/27 06:53:11;;;;;;;20.65;15.18;;;2.90;99.90;;;;;;5031901;28;20528;-49
2021/01/27 06:56:00;;;;;;;15.27;11.95;;;2.90;99.90;;;;;;5031839;28;20424;-48
2021/01/27 06:58:43;;;;;;;14.07;11.38;;;2.80;99.90;;;;;;5031901;28;20636;-45
2021/01/27 07:01:38;;;;;;;21.02;15.77;;;2.90;99.90;;;;;;5031530;28;20075;-47
2021/01/27 07:04:25;;;;;;;17.10;12.77;;;2.90;99.90;;;;;;5031530;28;20092;-48
2021/01/27 07:07:06;;;;;;;16.77;12.18;;;2.90;99.90;;;;;;5031718;28;20108;-46
2021/01/27 07:09:45;;;;;;;13.02;11.60;;;2.90;99.90;;;;;;5014921;28;20033;-47
2021/01/27 07:12:29;;;;;;;14.10;11.65;;;3.00;99.90;;;;;;5029094;28;20037;-46
2021/01/27 07:15:22;;;;;;;13.43;11.57;;;2.90;96.50;;;;;;5014685;28;20073;-47
2021/01/27 07:18:06;;;;;;;14.35;11.57;;;4.10;95.50;;;;;;5030424;28;20115;-48
2021/01/27 07:20:37;;;;;;;15.13;12.65;;;;;;;;;;5033389;28;20029;-51
2021/01/27 07:23:15;;;;;;;16.35;13.27;;;7.90;87.10;;;;;;5073379;28;20021;-50
2021/01/27 07:25:52;;;;;;;12.70;10.65;;;8.80;81.90;;;;;;5073476;28;20025;-48
2021/01/27 07:28:44;;;;;;;12.40;9.93;;;;;;;;;;5071892;28;20470;-47
2021/01/27 07:31:34;;;;;;;10.23;8.48;;;9.10;75.10;;;;;;5049523;28;20045;-48
2021/01/27 07:34:11;;;;;;;12.32;10.13;;;9.00;75.80;;;;;;5073221;28;20039;-48
2021/01/27 07:36:43;;;;;;;12.50;10.10;;;9.30;77.00;;;;;;5069471;28;20033;-47
2021/01/27 07:39:26;;;;;;;13.18;9.48;;;8.10;76.10;;;;;;5054428;28;20037;-47
2021/01/27 07:42:03;;;;;;;12.57;9.95;;;6.80;80.80;;;;;;5055897;28;20066;-47
2021/01/27 07:44:31;;;;;;;16.08;13.05;;;6.10;85.00;;;;;;5053366;28;20507;-46
2021/01/27 07:47:04;;;;;;;14.10;12.05;;;5.70;98.00;;;;;;5053301;28;20032;-48
2021/01/27 07:49:42;;;;;;;15.10;11.43;;;5.10;89.80;;;;;;5053506;28;20035;-46
2021/01/27 07:52:28;;;;;;;17.75;13.30;;;4.40;91.50;;;;;;5053109;28;20072;-47
2021/01/27 07:55:17;;;;;;;26.15;21.25;;;;;;;;;;5054177;28;20099;-48
2021/01/27 07:57:58;;;;;;;16.27;13.25;;;4.10;92.40;;;;;;5067859;28;20041;-48
2021/01/27 08:00:32;;;;;;;17.30;13.38;;;4.00;93.10;;;;;;5021260;28;20044;-46
2021/01/27 08:03:07;;;;;;;17.95;14.02;;;4.10;93.30;;;;;;5070676;28;20040;-47
2021/01/27 08:05:41;;;;;;;14.15;10.13;;;4.00;93.30;;;;;;5070916;28;20044;-47
2021/01/27 08:08:21;;;;;;;15.77;11.52;;;3.90;93.50;;;;;;5068623;28;20045;-47
2021/01/27 08:10:50;;;;;;;16.05;12.43;;;3.60;94.20;;;;;;5069239;28;20037;-47
2021/01/27 08:13:38;;;;;;;18.08;11.63;;;3.40;94.60;;;;;;5070900;28;20439;-46
2021/01/27 08:16:15;;;;;;;14.35;10.68;;;3.60;94.90;;;;;;5033114;28;20036;-48
2021/01/27 08:19:12;;;;;;;17.00;13.10;;;3.50;94.80;;;;;;5070095;28;20051;-47
2021/01/27 08:21:52;;;;;;;13.90;9.98;;;3.60;94.70;;;;;;5070760;28;20052;-46
2021/01/27 08:24:36;;;;;;;16.77;13.40;;;3.50;94.80;;;;;;5070560;28;20139;-47
2021/01/27 08:27:10;;;;;;;20.40;15.07;;;3.70;94.90;;;;;;5070774;28;20033;-48
2021/01/27 08:30:00;;;;;;;18.75;14.27;;;3.70;94.70;;;;;;5070753;28;20200;-46
2021/01/27 08:32:31;;;;;;;19.33;14.68;;;3.90;94.50;;;;;;5069728;28;20049;-46
2021/01/27 08:35:08;;;;;;;17.83;13.40;;;3.90;94.20;;;;;;5070652;28;20044;-49
2021/01/27 08:37:39;;;;;;;19.48;14.95;;;4.00;94.90;;;;;;5070843;28;20040;-47
2021/01/27 08:40:21;;;;;;;24.92;13.50;;;4.00;94.20;;;;;;5071170;28;20037;-47
2021/01/27 08:42:52;;;;;;;24.42;18.30;;;3.60;94.50;;;;;;5075046;28;20075;-47
2021/01/27 08:45:21;;;;;;;19.88;14.55;;;3.70;94.80;;;;;;5076394;28;20439;-47
2021/01/27 08:47:47;;;;;;;16.42;12.52;;;3.80;94.50;;;;;;5057207;28;20033;-49
2021/01/27 08:50:44;;;;;;;26.85;20.50;;;3.80;94.70;;;;;;5071036;28;20048;-48
2021/01/27 08:53:14;;;;;;;16.05;12.38;;;4.00;94.50;;;;;;5056101;28;20051;-48
2021/01/27 08:55:45;;;;;;;17.40;12.10;;;3.90;94.50;;;;;;5070593;28;20044;-48
2021/01/27 08:58:19;;;;;;;14.60;11.00;;;4.00;94.30;;;;;;5056133;28;20037;-48
2021/01/27 09:00:46;;;;;;;24.45;15.73;;;4.20;94.20;;;;;;5056142;28;20480;-49
2021/01/27 09:03:36;;;;;;;22.38;14.45;;;4.00;94.30;;;;;;5055765;28;20040;-47
2021/01/27 09:06:06;;;;;;;21.52;16.30;;;3.90;94.30;;;;;;5056093;28;20040;-48
2021/01/27 09:08:34;;;;;;;23.20;15.10;;;4.40;94.20;;;;;;5055536;28;20025;-49
2021/01/27 09:11:02;;;;;;;24.13;14.77;;;4.40;94.00;;;;;;5055929;28;20033;-48
2021/01/27 09:13:42;;;;;;;19.65;12.75;;;4.80;93.00;;;;;;5055911;28;20396;-48
2021/01/27 09:16:17;;;;;;;23.90;16.20;;;5.20;93.20;;;;;;5055746;28;20025;-48
2021/01/27 09:18:53;;;;;;;17.98;10.32;;;5.80;92.10;;;;;;5055797;28;20037;-47
2021/01/27 09:21:21;;;;;;;66.53;27.58;;;5.70;90.20;;;;;;5055701;28;20040;-48
2021/01/27 09:23:54;;;;;;;14.10;12.60;;;5.40;90.80;;;;;;5070247;28;20045;-48
2021/01/27 09:26:31;;;;;;;11.88;9.60;;;5.70;91.50;;;;;;5055481;28;20065;-48
2021/01/27 09:29:07;;;;;;;14.15;8.85;;;5.60;90.50;;;;;;5055875;28;20040;-48
2021/01/27 09:31:33;;;;;;;13.93;9.05;;;5.00;91.20;;;;;;5057563;28;20052;-50
2021/01/27 09:33:59;;;;;;;18.58;11.93;;;4.60;92.00;;;;;;5054877;28;20029;-47
2021/01/27 09:36:28;;;;;;;14.18;11.30;;;4.20;93.00;;;;;;5075593;28;20032;-49
2021/01/27 09:38:57;;;;;;;16.35;12.43;;;4.10;93.10;;;;;;5090014;28;20041;-49
2021/01/27 09:41:28;;;;;;;17.42;13.43;;;3.90;93.80;;;;;;5075249;28;20046;-49
2021/01/27 09:43:55;;;;;;;19.85;13.05;;;3.90;94.10;;;;;;5075428;28;20031;-48
2021/01/27 09:46:36;;;;;;;14.15;9.82;;;3.90;94.30;;;;;;5074739;28;20408;-49
2021/01/27 09:49:11;;;;;;;15.93;11.98;;;3.80;94.40;;;;;;5074901;28;20484;-48
2021/01/27 09:51:39;;;;;;;15.63;11.80;;;3.60;94.90;;;;;;5074970;28;20120;-49
2021/01/27 09:54:06;;;;;;;11.45;7.32;;;3.70;94.70;;;;;;5074896;28;20531;-48
2021/01/27 09:56:32;;;;;;;13.40;9.43;;;3.50;95.30;;;;;;5075490;28;20103;-48
2021/01/27 09:58:59;;;;;;;16.13;12.05;;;3.30;95.80;;;;;;5075388;28;20460;-47
2021/01/27 10:01:30;;;;;;;16.15;11.82;;;3.20;96.30;;;;;;5073847;28;20392;-49
2021/01/27 10:04:09;;;;;;;14.43;10.82;;;3.30;96.10;;;;;;5074956;28;20028;-48
2021/01/27 10:06:47;;;;;;;26.20;15.98;;;3.40;95.40;;;;;;5074914;28;20056;-49
2021/01/27 10:09:20;;;;;;;30.45;16.00;;;3.40;95.20;;;;;;5074615;28;20037;-48
2021/01/27 10:11:48;;;;;;;50.88;27.45;;;3.50;95.50;;;;;;5089728;28;20048;-49
2021/01/27 10:14:22;;;;;;;17.77;12.52;;;3.70;95.30;;;;;;5074798;28;20107;-49
2021/01/27 10:16:59;;;;;;;14.68;11.02;;;3.80;95.40;;;;;;5074562;28;20083;-47
2021/01/27 10:19:30;;;;;;;13.75;9.35;;;3.70;95.60;;;;;;5074527;28;20187;-48
2021/01/27 10:21:58;;;;;;;13.63;7.90;;;3.60;95.80;;;;;;5074486;28;20032;-48
2021/01/27 10:25:00;;;;;;;11.32;7.93;;;3.50;95.70;;;;;;5074364;28;20033;-47
2021/01/27 10:27:40;;;;;;;41.85;21.88;;;3.50;96.10;;;;;;5072010;28;20044;-48
2021/01/27 10:30:14;;;;;;;14.45;10.82;;;3.60;96.20;;;;;;5072098;28;20083;-49
2021/01/27 10:32:43;;;;;;;23.67;12.07;;;3.70;96.10;;;;;;5072109;28;20365;-48
2021/01/27 10:35:24;;;;;;;19.40;12.80;;;3.70;95.70;;;;;;5072049;28;20086;-49
2021/01/27 10:38:04;;;;;;;14.15;11.55;;;4.00;95.60;;;;;;5071715;28;20123;-47
2021/01/27 10:40:35;;;;;;;59.63;29.40;;;4.40;95.30;;;;;;5071879;28;20409;-49
2021/01/27 10:43:23;;;;;;;31.52;23.05;;;4.60;94.70;;;;;;5071827;28;20053;-47
2021/01/27 10:45:49;;;;;;;28.75;13.27;;;5.10;94.00;;;;;;5071561;28;20463;-47
2021/01/27 10:48:21;;;;;;;13.57;10.50;;;4.80;93.10;;;;;;5071888;28;20460;-49
2021/01/27 10:50:54;;;;;;;12.70;8.23;;;4.80;93.50;;;;;;5071829;28;20044;-47
2021/01/27 10:53:20;;;;;;;25.48;23.17;;;4.70;93.10;;;;;;5071634;28;20041;-49
2021/01/27 10:55:54;;;;;;;16.35;12.35;;;5.40;92.60;;;;;;5071267;28;20602;-47
2021/01/27 10:58:20;;;;;;;10.52;9.32;;;5.40;92.70;;;;;;5070994;28;20032;-49
2021/01/27 11:00:46;;;;;;;13.90;11.07;;;5.60;91.80;;;;;;5071356;28;20028;-48
2021/01/27 11:03:13;;;;;;;14.13;11.57;;;5.50;91.70;;;;;;5072782;28;20038;-47
2021/01/27 11:05:40;;;;;;;13.82;10.50;;;5.30;92.10;;;;;;5073818;28;20058;-49
2021/01/27 11:08:10;;;;;;;14.55;11.00;;;5.10;91.70;;;;;;5073644;28;20038;-48
2021/01/27 11:10:36;;;;;;;17.02;12.57;;;5.10;91.90;;;;;;5072407;28;20070;-48
2021/01/27 11:13:03;;;;;;;10.15;8.30;;;5.00;91.50;;;;;;5072454;28;20422;-48
2021/01/27 11:15:29;;;;;;;16.17;12.18;;;4.60;90.80;;;;;;5073509;28;20028;-48
2021/01/27 11:17:55;;;;;;;14.10;9.25;;;4.80;91.00;;;;;;5071581;28;20376;-48
2021/01/27 11:20:23;;;;;;;14.02;12.73;;;4.90;91.30;;;;;;5073610;28;20032;-49
2021/01/27 11:22:52;;;;;;;27.70;25.77;;;5.10;91.20;;;;;;5073376;28;20468;-49
2021/01/27 11:25:20;;;;;;;13.00;10.52;;;5.90;90.00;;;;;;5073722;28;20028;-48
2021/01/27 11:27:46;;;;;;;10.45;9.35;;;6.30;89.10;;;;;;5073603;28;20373;-48
2021/01/27 11:30:14;;;;;;;12.43;10.90;;;6.40;85.70;;;;;;5073561;28;20063;-49
2021/01/27 11:32:40;;;;;;;9.82;7.40;;;6.50;85.20;;;;;;5073440;28;20068;-47
2021/01/27 11:35:06;;;;;;;5.38;4.85;;;6.10;84.80;;;;;;5073733;28;20028;-48
2021/01/27 11:37:32;;;;;;;10.65;4.50;;;6.00;83.70;;;;;;5073146;28;20052;-47
2021/01/27 11:39:58;;;;;;;6.60;4.38;;;5.40;84.20;;;;;;5073654;28;20485;-48
2021/01/27 11:42:24;;;;;;;10.52;8.57;;;4.90;87.40;;;;;;5088305;28;20079;-48
2021/01/27 11:44:50;;;;;;;6.95;4.95;;;5.10;88.30;;;;;;5072853;28;20115;-48
2021/01/27 11:47:15;;;;;;;9.30;8.23;;;4.70;87.40;;;;;;5073443;28;20020;-48
2021/01/27 11:49:44;;;;;;;10.82;9.10;;;4.70;88.10;;;;;;5072960;28;20024;-48
2021/01/27 11:52:10;;;;;;;13.73;9.05;;;4.90;88.80;;;;;;5073173;28;20056;-42
2021/01/27 11:54:42;;;;;;;10.30;7.90;;;4.80;88.90;;;;;;5073210;28;20024;-46
2021/01/27 11:57:08;;;;;;;11.82;9.25;;;4.70;88.60;;;;;;5073551;28;20027;-47
2021/01/27 11:59:35;;;;;;;12.63;8.75;;;4.70;89.70;;;;;;5072945;28;20039;-50
2021/01/27 12:02:03;;;;;;;11.27;9.80;;;4.60;90.00;;;;;;5073294;28;20100;-47
2021/01/27 12:04:29;;;;;;;11.65;7.68;;;4.80;90.40;;;;;;5073342;28;20025;-44
2021/01/27 12:06:55;;;;;;;12.95;7.85;;;4.70;88.90;;;;;;5072783;28;20034;-49
2021/01/27 12:09:20;;;;;;;6.43;4.80;;;4.70;89.00;;;;;;5075932;28;20029;-46
2021/01/27 12:11:46;;;;;;;9.00;6.63;;;4.50;88.60;;;;;;5077113;28;20028;-48
2021/01/27 12:14:12;;;;;;;25.10;11.95;;;4.50;89.90;;;;;;5076738;28;20024;-48
2021/01/27 12:16:38;;;;;;;11.30;9.52;;;4.60;90.50;;;;;;5077066;28;20025;-47
2021/01/27 12:19:04;;;;;;;9.85;6.88;;;4.40;90.20;;;;;;5077260;28;20025;-48
2021/01/27 12:21:29;;;;;;;10.43;7.78;;;4.40;90.30;;;;;;5076901;28;20032;-47
2021/01/27 12:23:55;;;;;;;16.40;11.80;;;4.30;91.00;;;;;;5076817;28;20017;-48
2021/01/27 12:26:21;;;;;;;16.15;11.80;;;4.60;91.20;;;;;;5074903;28;20038;-46
2021/01/27 12:28:47;;;;;;;12.75;10.50;;;4.80;90.30;;;;;;5076454;28;20166;-48
2021/01/27 12:31:14;;;;;;;10.90;8.38;;;4.80;90.20;;;;;;5076710;28;20490;-46
2021/01/27 12:33:39;;;;;;;16.17;12.10;;;4.90;90.00;;;;;;5076502;28;20036;-45
2021/01/27 12:36:05;;;;;;;9.43;7.97;;;5.00;90.10;;;;;;5076419;28;20039;-46
2021/01/27 12:38:32;;;;;;;30.52;18.77;;;5.00;88.00;;;;;;5074516;28;20036;-41
2021/01/27 12:40:59;;;;;;;12.48;10.68;;;5.10;89.50;;;;;;5076400;28;20448;-43
2021/01/27 12:43:25;;;;;;;43.95;23.63;;;5.10;88.40;;;;;;5076192;28;20501;-46
2021/01/27 12:45:51;;;;;;;38.15;24.67;;;5.10;88.00;;;;;;5075810;28;20016;-49
2021/01/27 12:48:17;;;;;;;22.30;17.45;;;4.90;87.80;;;;;;5076022;28;20047;-44
2021/01/27 12:50:43;;;;;;;54.65;30.70;;;5.00;89.20;;;;;;5076154;28;20032;-59
2021/01/27 12:53:08;;;;;;;195.00;93.80;;;4.60;90.90;;;;;;5076039;28;20498;-42
2021/01/27 12:55:34;;;;;;;32.25;18.17;;;4.50;91.00;;;;;;5076449;28;20420;-45
2021/01/27 12:58:00;;;;;;;19.08;13.30;;;4.30;91.30;;;;;;5073824;28;20040;-48
2021/01/27 13:00:27;;;;;;;33.05;21.33;;;4.40;91.70;;;;;;5074194;28;20404;-48
2021/01/27 13:02:55;;;;;;;13.60;10.88;;;4.70;91.20;;;;;;5076684;28;20040;-48
2021/01/27 13:05:22;;;;;;;10.25;7.82;;;4.80;90.40;;;;;;5076045;28;20073;-48
2021/01/27 13:07:48;;;;;;;10.77;8.73;;;4.70;89.50;;;;;;5076090;28;20090;-48
2021/01/27 13:10:15;;;;;;;5.65;3.90;;;5.00;87.00;;;;;;5076022;28;20071;-48